createdAt,value
2022-11-08T00:02:41.053Z,12.50
2022-11-08T00:07:01.395Z,12.40
2022-11-08T00:11:21.823Z,12.40
2022-11-08T00:15:22.887Z,12.30
2022-11-08T00:19:24.046Z,12.20
2022-11-08T00:23:25.129Z,12.20
2022-11-08T00:27:27.336Z,12.10
2022-11-08T00:31:28.470Z,12.00
2022-11-08T00:35:29.649Z,11.90
2022-11-08T00:39:31.326Z,11.80
2022-11-08T00:43:32.372Z,11.80
2022-11-08T00:47:33.810Z,11.80
2022-11-08T00:51:36.380Z,11.70
2022-11-08T00:55:37.681Z,11.70
2022-11-08T00:59:38.841Z,11.70
2022-11-08T01:03:40.010Z,11.60
2022-11-08T01:07:41.158Z,11.50
2022-11-08T01:11:44.174Z,11.60
2022-11-08T01:15:45.786Z,11.50
2022-11-08T01:19:47.016Z,11.40
2022-11-08T01:23:48.600Z,11.20
2022-11-08T01:27:49.668Z,11.30
2022-11-08T01:31:50.840Z,11.30
2022-11-08T01:35:51.929Z,11.30
2022-11-08T01:39:53.405Z,11.30
2022-11-08T01:43:55.997Z,11.30
2022-11-08T01:47:57.174Z,11.20
2022-11-08T01:52:02.139Z,11.40
2022-11-08T01:56:04.058Z,11.20
2022-11-08T02:00:09.635Z,11.20
2022-11-08T02:04:13.117Z,11.10
2022-11-08T02:08:20.820Z,11.10
2022-11-08T02:12:23.389Z,11.00
2022-11-08T02:16:24.480Z,11.00
2022-11-08T02:20:26.542Z,10.90
2022-11-08T02:24:27.727Z,11.00
2022-11-08T02:28:28.865Z,10.90
2022-11-08T02:32:39.270Z,11.00
2022-11-08T02:36:43.447Z,10.90
2022-11-08T02:40:47.403Z,10.90
2022-11-08T02:44:49.179Z,10.90
2022-11-08T02:48:50.568Z,10.80
2022-11-08T02:52:51.617Z,10.80
2022-11-08T02:56:52.788Z,10.70
2022-11-08T03:00:53.999Z,10.70
2022-11-08T03:04:55.110Z,10.60
2022-11-08T03:08:56.183Z,10.60
2022-11-08T03:12:59.130Z,10.50
2022-11-08T03:17:00.203Z,10.60
2022-11-08T03:21:01.264Z,10.60
2022-11-08T03:25:02.438Z,10.60
2022-11-08T03:29:03.598Z,10.70
2022-11-08T03:33:04.694Z,10.70
2022-11-08T03:37:07.748Z,10.80
2022-11-08T03:41:08.854Z,10.70
2022-11-08T03:45:10.647Z,10.70
2022-11-08T03:49:11.724Z,10.70
2022-11-08T03:53:12.872Z,10.80
2022-11-08T03:57:14.060Z,10.80
2022-11-08T04:01:15.334Z,10.90
2022-11-08T04:05:16.579Z,11.00
2022-11-08T04:09:21.540Z,11.00
2022-11-08T04:13:39.852Z,10.90
2022-11-08T04:18:05.038Z,10.90
2022-11-08T04:22:08.094Z,10.80
2022-11-08T04:26:11.083Z,10.70
2022-11-08T04:30:12.460Z,10.70
2022-11-08T04:34:13.528Z,10.70
2022-11-08T04:38:15.783Z,10.70
2022-11-08T04:42:17.079Z,10.70
2022-11-08T04:46:21.075Z,10.60
2022-11-08T04:50:22.248Z,10.70
2022-11-08T04:54:23.412Z,10.70
2022-11-08T04:58:24.524Z,10.70
2022-11-08T05:02:25.812Z,10.80
2022-11-08T05:06:29.886Z,10.80
2022-11-08T05:10:30.982Z,10.80
2022-11-08T05:14:32.045Z,10.70
2022-11-08T05:18:34.259Z,10.70
2022-11-08T05:22:53.893Z,10.70
2022-11-08T05:26:54.992Z,10.80
2022-11-08T05:30:56.650Z,10.80
2022-11-08T05:34:57.716Z,10.80
2022-11-08T05:38:59.065Z,10.70
2022-11-08T05:43:00.319Z,10.60
2022-11-08T05:47:01.387Z,10.50
2022-11-08T05:51:02.803Z,10.50
2022-11-08T05:55:04.543Z,10.50
2022-11-08T05:59:05.815Z,10.30
2022-11-08T06:03:07.369Z,10.30
2022-11-08T06:07:08.475Z,10.20
2022-11-08T06:11:13.462Z,10.10
2022-11-08T06:15:14.735Z,10.10
2022-11-08T06:19:15.790Z,10.00
2022-11-08T06:23:17.329Z,9.90
2022-11-08T06:27:18.738Z,9.90
2022-11-08T06:31:19.809Z,9.90
2022-11-08T06:35:20.955Z,9.90
2022-11-08T06:39:22.443Z,9.90
2022-11-08T06:43:23.887Z,9.90
2022-11-08T06:47:25.193Z,9.60
2022-11-08T06:51:26.670Z,9.70
2022-11-08T06:55:28.377Z,9.90
2022-11-08T06:59:29.545Z,10.00
2022-11-08T07:03:31.200Z,10.20
2022-11-08T07:07:32.291Z,10.20
2022-11-08T07:11:33.353Z,10.30
2022-11-08T07:15:35.368Z,10.40
2022-11-08T07:19:36.485Z,10.50
2022-11-08T07:23:37.573Z,10.70
2022-11-08T07:27:38.635Z,10.80
2022-11-08T07:31:39.708Z,10.90
2022-11-08T07:35:40.970Z,11.00
2022-11-08T07:39:42.032Z,11.00
2022-11-08T07:43:43.130Z,11.00
2022-11-08T07:47:44.201Z,11.10
2022-11-08T07:51:45.251Z,11.20
2022-11-08T07:55:47.419Z,11.40
2022-11-08T07:59:48.493Z,11.60
2022-11-08T08:03:49.855Z,11.60
2022-11-08T08:07:51.032Z,11.80
2022-11-08T08:11:52.189Z,11.80
2022-11-08T08:15:59.793Z,11.80
2022-11-08T08:20:00.960Z,11.90
2022-11-08T08:24:02.032Z,11.90
2022-11-08T08:28:05.113Z,11.90
2022-11-08T08:32:06.575Z,12.00
2022-11-08T08:36:07.695Z,12.10
2022-11-08T08:40:10.578Z,12.50
2022-11-08T08:44:11.732Z,12.60
2022-11-08T08:48:12.788Z,13.20
2022-11-08T08:52:13.867Z,13.70
2022-11-08T08:56:15.045Z,13.90
2022-11-08T09:04:19.790Z,13.90
2022-11-08T09:08:20.878Z,13.90
2022-11-08T09:12:22.518Z,13.90
2022-11-08T09:16:23.604Z,14.00
2022-11-08T09:20:25.985Z,14.10
2022-11-08T09:24:27.161Z,14.20
2022-11-08T09:28:31.649Z,14.40
2022-11-08T09:32:59.142Z,14.40
2022-11-08T09:36:36.037Z,14.70
2022-11-08T09:40:45.467Z,15.30
2022-11-08T09:44:53.356Z,16.10
2022-11-08T09:48:57.128Z,16.50
2022-11-08T09:53:14.610Z,16.60
2022-11-08T09:57:22.316Z,17.10
2022-11-08T10:01:27.106Z,17.30
2022-11-08T10:05:28.930Z,17.40
2022-11-08T10:10:11.121Z,17.10
2022-11-08T10:14:48.951Z,17.50
2022-11-08T10:19:12.214Z,18.30
2022-11-08T10:23:22.995Z,18.30
2022-11-08T10:27:34.165Z,18.40
2022-11-08T10:31:38.941Z,18.70
2022-11-08T10:35:50.067Z,18.80
2022-11-08T10:39:55.046Z,18.90
2022-11-08T10:43:59.998Z,19.20
2022-11-08T10:48:01.266Z,19.30
2022-11-08T10:52:21.189Z,19.30
2022-11-08T10:56:24.206Z,19.70
2022-11-08T11:00:28.648Z,19.90
2022-11-08T11:04:34.204Z,19.90
2022-11-08T11:08:39.160Z,20.10
2022-11-08T11:12:40.358Z,20.20
2022-11-08T11:16:57.154Z,19.80
2022-11-08T11:21:05.181Z,19.80
2022-11-08T11:25:16.183Z,20.10
2022-11-08T11:29:36.418Z,19.90
2022-11-08T11:33:43.371Z,19.40
2022-11-08T11:37:47.859Z,19.10
2022-11-08T11:41:55.294Z,18.70
2022-11-08T11:46:38.726Z,18.60
2022-11-08T11:50:39.931Z,18.60
2022-11-08T11:54:43.606Z,18.50
2022-11-08T11:58:51.529Z,18.10
2022-11-08T12:03:02.605Z,17.80
2022-11-08T12:07:22.439Z,18.20
2022-11-08T12:11:36.476Z,18.30
2022-11-08T12:16:01.436Z,18.50
2022-11-08T12:20:35.598Z,18.80
2022-11-08T12:24:58.803Z,18.70
2022-11-08T12:29:26.438Z,18.40
2022-11-08T12:33:46.800Z,18.40
2022-11-08T12:38:04.040Z,18.40
2022-11-08T12:42:14.978Z,18.50
2022-11-08T12:46:17.873Z,18.20
2022-11-08T12:50:29.563Z,18.20
2022-11-08T12:54:49.844Z,18.50
2022-11-08T12:58:53.780Z,18.50
2022-11-08T13:03:30.421Z,18.30
2022-11-08T13:07:59.394Z,18.60
2022-11-08T13:12:06.908Z,18.90
2022-11-08T13:16:18.137Z,19.10
2022-11-08T13:20:46.047Z,19.30
2022-11-08T13:24:47.118Z,19.60
2022-11-08T13:28:49.178Z,19.20
2022-11-08T13:33:17.273Z,19.10
2022-11-08T13:37:45.003Z,18.80
2022-11-08T13:42:17.121Z,18.40
2022-11-08T13:46:25.129Z,18.20
2022-11-08T13:50:33.113Z,18.00
2022-11-08T13:54:37.985Z,18.00
2022-11-08T13:58:41.270Z,18.30
2022-11-08T14:02:42.385Z,18.30
2022-11-08T14:06:50.456Z,18.50
2022-11-08T14:11:04.551Z,18.20
2022-11-08T14:15:32.070Z,18.10
2022-11-08T14:19:39.692Z,17.90
2022-11-08T14:23:41.837Z,17.80
2022-11-08T14:27:43.016Z,17.70
2022-11-08T14:31:45.011Z,17.70
2022-11-08T14:36:06.617Z,17.80
2022-11-08T14:40:20.919Z,17.80
2022-11-08T14:44:23.089Z,17.60
2022-11-08T14:48:30.340Z,17.40
2022-11-08T14:52:32.431Z,17.70
2022-11-08T14:56:38.335Z,17.50
2022-11-08T15:00:44.933Z,17.60
2022-11-08T15:04:46.187Z,17.50
2022-11-08T15:08:54.026Z,17.40
2022-11-08T15:12:56.567Z,17.50
2022-11-08T15:17:02.765Z,17.40
2022-11-08T15:21:16.722Z,17.10
2022-11-08T15:25:27.984Z,17.20
2022-11-08T15:29:29.174Z,17.10
2022-11-08T15:33:36.334Z,17.00
2022-11-08T15:37:42.117Z,16.90
2022-11-08T15:41:43.295Z,17.00
2022-11-08T15:45:48.150Z,16.90
2022-11-08T15:49:49.244Z,16.80
2022-11-08T15:53:50.761Z,16.70
2022-11-08T15:57:51.951Z,16.60
2022-11-08T16:01:59.045Z,16.30
2022-11-08T16:06:00.420Z,16.30
2022-11-08T16:10:01.609Z,16.30
2022-11-08T16:14:02.793Z,16.10
2022-11-08T16:18:04.045Z,16.10
2022-11-08T16:22:06.853Z,16.00
2022-11-08T16:26:11.868Z,16.10
2022-11-08T16:30:15.505Z,16.00
2022-11-08T16:34:16.904Z,15.90
2022-11-08T16:38:30.815Z,15.80
2022-11-08T16:42:33.531Z,15.70
2022-11-08T16:46:35.957Z,15.60
2022-11-08T16:50:40.009Z,15.50
2022-11-08T16:54:42.368Z,15.40
2022-11-08T16:58:43.928Z,15.50
2022-11-08T17:02:51.255Z,15.40
2022-11-08T17:06:53.108Z,15.50
2022-11-08T17:10:55.619Z,15.50
2022-11-08T17:14:57.975Z,15.50
2022-11-08T17:18:59.876Z,15.50
2022-11-08T17:23:03.106Z,15.50
2022-11-08T17:27:04.792Z,15.60
2022-11-08T17:31:13.243Z,15.70
2022-11-08T17:35:14.750Z,15.60
2022-11-08T17:39:16.047Z,15.50
2022-11-08T17:43:19.511Z,15.40
2022-11-08T17:47:21.116Z,15.30
2022-11-08T17:51:22.363Z,15.20
2022-11-08T17:55:23.813Z,15.20
2022-11-08T17:59:25.028Z,15.20
2022-11-08T18:03:27.147Z,15.20
2022-11-08T18:07:28.337Z,15.10
2022-11-08T18:11:29.550Z,15.00
2022-11-08T18:15:30.762Z,15.00
2022-11-08T18:19:31.955Z,15.10
2022-11-08T18:23:33.620Z,15.00
2022-11-08T18:27:34.838Z,15.10
2022-11-08T18:31:36.205Z,15.10
2022-11-08T18:35:37.985Z,15.20
2022-11-08T18:39:39.379Z,15.30
2022-11-08T18:43:40.962Z,15.50
2022-11-08T18:47:42.182Z,15.50
2022-11-08T18:51:43.463Z,15.40
2022-11-08T18:55:44.757Z,15.40
2022-11-08T18:59:46.053Z,15.30
2022-11-08T19:03:47.264Z,15.10
2022-11-08T19:07:48.490Z,15.10
2022-11-08T19:11:50.170Z,15.00
2022-11-08T19:15:56.594Z,14.90
2022-11-08T19:19:57.786Z,14.80
2022-11-08T19:23:59.137Z,14.90
2022-11-08T19:28:00.320Z,15.10
2022-11-08T19:32:01.550Z,15.30
2022-11-08T19:36:06.175Z,15.60
2022-11-08T19:40:08.754Z,15.80
2022-11-08T19:44:10.452Z,15.90
2022-11-08T19:48:11.634Z,16.00
2022-11-08T19:52:12.857Z,16.20
2022-11-08T19:56:16.967Z,16.20
2022-11-08T20:00:19.468Z,16.30
2022-11-08T20:04:20.658Z,16.30
2022-11-08T20:08:22.642Z,16.40
2022-11-08T20:12:23.847Z,16.60
2022-11-08T20:16:28.431Z,16.60
2022-11-08T20:20:30.043Z,16.50
2022-11-08T20:24:31.584Z,16.50
2022-11-08T20:28:34.400Z,16.60
2022-11-08T20:32:36.666Z,16.40
2022-11-08T20:36:40.053Z,16.30
2022-11-08T20:40:43.166Z,16.20
2022-11-08T20:44:44.437Z,16.30
2022-11-08T20:48:50.699Z,16.40
2022-11-08T20:52:50.410Z,16.30
2022-11-08T20:56:51.594Z,16.50
2022-11-08T21:00:58.118Z,16.60
2022-11-08T21:04:57.099Z,16.60
2022-11-08T21:09:00.654Z,16.60
2022-11-08T21:13:01.309Z,16.80
2022-11-08T21:21:12.041Z,16.90
2022-11-08T21:25:13.337Z,16.90
2022-11-08T21:29:14.518Z,16.70
2022-11-08T21:33:15.753Z,16.60
2022-11-08T21:37:17.260Z,16.50
2022-11-08T21:41:18.852Z,16.50
2022-11-08T21:45:20.040Z,16.40
2022-11-08T21:49:21.243Z,16.30
2022-11-08T21:53:22.443Z,16.50
2022-11-08T21:57:23.632Z,16.60
2022-11-08T22:01:29.842Z,16.50
2022-11-08T22:05:28.012Z,16.60
2022-11-08T22:09:29.345Z,16.80
2022-11-08T22:13:30.535Z,16.70
2022-11-08T22:17:31.737Z,16.60
2022-11-08T22:21:41.727Z,16.60
2022-11-08T22:25:42.917Z,16.50
2022-11-08T22:29:43.996Z,16.40
2022-11-08T22:33:45.220Z,16.40
2022-11-08T22:37:46.798Z,16.20
2022-11-08T22:41:50.934Z,16.20
2022-11-08T22:45:52.207Z,16.10
2022-11-08T22:49:53.512Z,16.10
2022-11-08T22:53:54.665Z,16.10
2022-11-08T22:57:55.873Z,15.90
2022-11-08T23:01:57.057Z,16.00
2022-11-08T23:05:58.356Z,16.20
2022-11-08T23:09:59.540Z,16.10
2022-11-08T23:14:19.785Z,15.90
2022-11-08T23:18:22.992Z,16.00
2022-11-08T23:22:43.400Z,16.00
2022-11-08T23:27:03.085Z,15.90
2022-11-08T23:31:22.797Z,16.00
2022-11-08T23:35:23.947Z,16.10
2022-11-08T23:39:25.053Z,16.00
2022-11-08T23:43:44.624Z,16.10
2022-11-08T23:47:45.815Z,16.00
2022-11-08T23:51:47.413Z,16.10
2022-11-08T23:55:48.621Z,16.20
2022-11-08T23:59:50.004Z,16.30
